createdAt,value
2023-03-31T00:01:10.922Z,9.80
2023-03-31T00:03:44.434Z,9.80
2023-03-31T00:06:18.702Z,9.80
2023-03-31T00:08:52.419Z,9.80
2023-03-31T00:11:23.326Z,9.70
2023-03-31T00:13:51.588Z,9.70
2023-03-31T00:16:20.384Z,9.70
2023-03-31T00:18:51.238Z,9.70
2023-03-31T00:21:29.836Z,9.70
2023-03-31T00:23:59.850Z,9.70
2023-03-31T00:26:30.670Z,9.60
2023-03-31T00:28:59.825Z,9.70
2023-03-31T00:31:28.853Z,9.60
2023-03-31T00:33:57.218Z,9.70
2023-03-31T00:36:28.289Z,9.70
2023-03-31T00:38:59.257Z,9.70
2023-03-31T00:41:29.137Z,9.70
2023-03-31T00:44:09.313Z,9.70
2023-03-31T00:46:42.433Z,9.70
2023-03-31T00:49:18.077Z,9.70
2023-03-31T00:51:47.190Z,9.70
2023-03-31T00:54:15.941Z,9.70
2023-03-31T00:56:48.558Z,9.70
2023-03-31T00:59:17.839Z,9.70
2023-03-31T01:01:48.350Z,9.70
2023-03-31T01:04:17.335Z,9.70
2023-03-31T01:06:57.397Z,9.80
2023-03-31T01:09:26.189Z,9.80
2023-03-31T01:11:56.035Z,9.80
2023-03-31T01:14:24.459Z,9.70
2023-03-31T01:16:53.654Z,9.70
2023-03-31T01:19:31.015Z,9.70
2023-03-31T01:22:37.930Z,9.70
2023-03-31T01:25:50.420Z,9.70
2023-03-31T01:28:28.356Z,9.60
2023-03-31T01:31:24.832Z,9.60
2023-03-31T01:34:14.164Z,9.60
2023-03-31T01:37:19.718Z,9.60
2023-03-31T01:40:14.481Z,9.60
2023-03-31T01:42:47.906Z,9.60
2023-03-31T01:45:27.272Z,9.60
2023-03-31T01:47:59.292Z,9.60
2023-03-31T01:50:33.465Z,9.60
2023-03-31T01:53:06.802Z,9.60
2023-03-31T01:55:38.760Z,9.60
2023-03-31T01:58:12.269Z,9.60
2023-03-31T02:00:43.735Z,9.50
2023-03-31T02:03:17.957Z,9.50
2023-03-31T02:05:50.416Z,9.50
2023-03-31T02:08:24.190Z,9.50
2023-03-31T02:10:55.385Z,9.50
2023-03-31T02:13:26.850Z,9.40
2023-03-31T02:15:58.640Z,9.40
2023-03-31T02:18:33.188Z,9.40
2023-03-31T02:21:03.500Z,9.40
2023-03-31T02:23:33.622Z,9.40
2023-03-31T02:26:08.417Z,9.40
2023-03-31T02:28:37.170Z,9.30
2023-03-31T02:31:20.152Z,9.30
2023-03-31T02:33:49.252Z,9.30
2023-03-31T02:36:18.081Z,9.30
2023-03-31T02:38:50.870Z,9.30
2023-03-31T02:41:20.658Z,9.30
2023-03-31T02:43:49.032Z,9.20
2023-03-31T02:46:17.323Z,9.30
2023-03-31T02:48:48.888Z,9.30
2023-03-31T02:51:48.729Z,9.20
2023-03-31T02:54:46.866Z,9.30
2023-03-31T02:57:42.704Z,9.20
2023-03-31T03:00:22.011Z,9.30
2023-03-31T03:03:03.464Z,9.30
2023-03-31T03:05:45.984Z,9.30
2023-03-31T03:08:28.208Z,9.30
2023-03-31T03:11:06.460Z,9.30
2023-03-31T03:13:43.010Z,9.30
2023-03-31T03:16:19.275Z,9.30
2023-03-31T03:18:57.125Z,9.20
2023-03-31T03:21:25.346Z,9.20
2023-03-31T03:23:54.897Z,9.20
2023-03-31T03:26:23.987Z,9.10
2023-03-31T03:28:53.664Z,9.10
2023-03-31T03:31:23.858Z,9.10
2023-03-31T03:33:52.730Z,9.10
2023-03-31T03:36:21.825Z,9.00
2023-03-31T03:38:50.280Z,9.00
2023-03-31T03:41:18.506Z,9.00
2023-03-31T03:43:46.658Z,9.00
2023-03-31T03:46:16.256Z,8.90
2023-03-31T03:48:44.400Z,8.90
2023-03-31T03:51:12.661Z,8.90
2023-03-31T03:53:40.935Z,8.90
2023-03-31T03:56:09.437Z,8.80
2023-03-31T03:58:37.843Z,8.80
2023-03-31T04:01:06.321Z,8.80
2023-03-31T04:03:36.081Z,8.70
2023-03-31T04:06:04.789Z,8.70
2023-03-31T04:08:33.527Z,8.70
2023-03-31T04:11:04.011Z,8.70
2023-03-31T04:13:32.284Z,8.60
2023-03-31T04:16:00.582Z,8.60
2023-03-31T04:18:28.769Z,8.60
2023-03-31T04:21:05.073Z,8.60
2023-03-31T04:23:33.666Z,8.50
2023-03-31T04:26:04.322Z,8.50
2023-03-31T04:28:35.113Z,8.50
2023-03-31T04:31:03.812Z,8.50
2023-03-31T04:33:34.169Z,8.50
2023-03-31T04:36:07.211Z,8.50
2023-03-31T04:38:35.885Z,8.40
2023-03-31T04:41:04.117Z,8.50
2023-03-31T04:43:32.274Z,8.50
2023-03-31T04:46:00.495Z,8.50
2023-03-31T04:48:28.758Z,8.50
2023-03-31T04:50:56.918Z,8.50
2023-03-31T04:53:27.229Z,8.60
2023-03-31T04:55:55.392Z,8.60
2023-03-31T04:58:23.568Z,8.60
2023-03-31T05:00:52.661Z,8.60
2023-03-31T05:03:21.738Z,8.60
2023-03-31T05:05:49.990Z,8.60
2023-03-31T05:08:18.175Z,8.60
2023-03-31T05:10:47.710Z,8.50
2023-03-31T05:13:16.004Z,8.60
2023-03-31T05:15:45.092Z,8.60
2023-03-31T05:18:13.497Z,8.50
2023-03-31T05:20:41.666Z,8.60
2023-03-31T05:23:09.837Z,8.60
2023-03-31T05:25:37.986Z,8.80
2023-03-31T05:28:16.503Z,8.60
2023-03-31T05:30:44.637Z,8.60
2023-03-31T05:33:12.817Z,8.60
2023-03-31T05:35:41.133Z,8.70
2023-03-31T05:38:09.299Z,8.70
2023-03-31T05:40:37.497Z,8.60
2023-03-31T05:43:05.639Z,8.70
2023-03-31T05:45:35.189Z,8.70
2023-03-31T05:48:03.648Z,8.70
2023-03-31T05:50:31.803Z,8.80
2023-03-31T05:53:00.489Z,8.80
2023-03-31T05:55:28.668Z,8.80
2023-03-31T05:57:56.856Z,8.80
2023-03-31T06:00:25.417Z,8.90
2023-03-31T06:02:54.987Z,8.90
2023-03-31T06:05:26.549Z,8.90
2023-03-31T06:07:55.047Z,9.00
2023-03-31T06:10:23.165Z,9.10
2023-03-31T06:12:51.255Z,9.10
2023-03-31T06:15:19.409Z,9.10
2023-03-31T06:17:47.557Z,9.10
2023-03-31T06:20:27.790Z,9.10
2023-03-31T06:22:56.816Z,9.10
2023-03-31T06:25:25.027Z,9.20
2023-03-31T06:27:53.487Z,9.20
2023-03-31T06:30:21.786Z,9.20
2023-03-31T06:32:50.015Z,9.20
2023-03-31T06:35:19.694Z,9.20
2023-03-31T06:37:47.855Z,9.20
2023-03-31T06:40:16.192Z,9.30
2023-03-31T06:42:44.403Z,9.30
2023-03-31T06:45:12.708Z,9.30
2023-03-31T06:47:41.616Z,9.30
2023-03-31T06:50:11.639Z,9.40
2023-03-31T06:52:41.971Z,9.50
2023-03-31T06:55:10.924Z,9.50
2023-03-31T06:57:39.348Z,9.70
2023-03-31T07:00:09.052Z,9.60
2023-03-31T07:02:38.167Z,9.70
2023-03-31T07:05:07.190Z,9.80
2023-03-31T07:07:36.495Z,9.80
2023-03-31T07:10:06.889Z,9.90
2023-03-31T07:12:35.254Z,9.90
2023-03-31T07:15:03.487Z,10.00
2023-03-31T07:17:31.645Z,10.00
2023-03-31T07:20:00.359Z,10.10
2023-03-31T07:22:28.552Z,10.20
2023-03-31T07:24:56.727Z,10.10
2023-03-31T07:27:26.507Z,10.10
2023-03-31T07:29:55.152Z,10.10
2023-03-31T07:32:23.691Z,10.20
2023-03-31T07:34:52.619Z,10.30
2023-03-31T07:37:20.794Z,10.40
2023-03-31T07:39:48.951Z,10.30
2023-03-31T07:42:17.121Z,10.30
2023-03-31T07:44:46.668Z,10.40
2023-03-31T07:47:15.052Z,10.50
2023-03-31T07:49:43.200Z,10.50
2023-03-31T07:52:11.356Z,10.60
2023-03-31T07:54:39.593Z,10.70
2023-03-31T07:57:09.164Z,10.70
2023-03-31T07:59:37.417Z,10.80
2023-03-31T08:02:07.040Z,10.80
2023-03-31T08:04:35.349Z,10.80
2023-03-31T08:07:03.877Z,10.80
2023-03-31T08:09:32.043Z,10.90
2023-03-31T08:12:00.182Z,10.90
2023-03-31T08:14:39.981Z,10.80
2023-03-31T08:17:11.370Z,10.90
2023-03-31T08:19:39.636Z,10.80
2023-03-31T08:22:07.760Z,11.00
2023-03-31T08:24:35.959Z,11.10
2023-03-31T08:27:04.408Z,11.30
2023-03-31T08:29:32.665Z,11.20
2023-03-31T08:32:00.877Z,11.20
2023-03-31T08:34:30.493Z,11.10
2023-03-31T08:36:58.599Z,11.00
2023-03-31T08:39:27.292Z,11.10
2023-03-31T08:42:01.714Z,10.90
2023-03-31T08:44:36.086Z,10.80
2023-03-31T08:47:06.857Z,10.90
2023-03-31T08:49:41.849Z,10.70
2023-03-31T08:52:16.791Z,10.90
2023-03-31T08:54:49.435Z,11.00
2023-03-31T08:57:21.117Z,11.00
2023-03-31T08:59:51.028Z,11.00
2023-03-31T09:02:28.404Z,11.10
2023-03-31T09:05:56.840Z,11.10
2023-03-31T09:08:38.550Z,11.10
2023-03-31T09:11:13.154Z,11.30
2023-03-31T09:14:16.161Z,11.30
2023-03-31T09:16:50.011Z,11.30
2023-03-31T09:19:22.924Z,11.40
2023-03-31T09:21:58.545Z,11.60
2023-03-31T09:24:32.758Z,11.80
2023-03-31T09:27:03.577Z,11.90
2023-03-31T09:29:38.677Z,12.00
2023-03-31T09:32:16.541Z,11.90
2023-03-31T09:34:45.713Z,11.80
2023-03-31T09:37:15.494Z,12.00
2023-03-31T09:39:43.883Z,12.10
2023-03-31T09:42:14.513Z,12.40
2023-03-31T09:44:45.925Z,12.70
2023-03-31T09:47:19.624Z,12.50
2023-03-31T09:49:53.951Z,12.60
2023-03-31T09:52:30.623Z,12.70
2023-03-31T09:55:02.188Z,12.60
2023-03-31T09:57:33.842Z,12.70
2023-03-31T10:00:13.687Z,12.90
2023-03-31T10:02:45.869Z,13.00
2023-03-31T10:05:33.384Z,13.10
2023-03-31T10:08:28.446Z,13.20
2023-03-31T10:10:58.467Z,13.20
2023-03-31T10:13:29.437Z,13.00
2023-03-31T10:16:05.152Z,13.20
2023-03-31T10:18:36.679Z,13.30
2023-03-31T10:21:07.605Z,13.20
2023-03-31T10:23:37.717Z,13.20
2023-03-31T10:26:06.749Z,13.20
2023-03-31T10:28:36.965Z,13.20
2023-03-31T10:31:06.494Z,13.10
2023-03-31T10:33:37.940Z,13.30
2023-03-31T10:36:14.198Z,13.30
2023-03-31T10:38:47.144Z,13.30
2023-03-31T10:41:21.811Z,13.20
2023-03-31T10:43:52.480Z,13.10
2023-03-31T10:46:21.366Z,13.40
2023-03-31T10:48:49.644Z,13.50
2023-03-31T10:51:20.023Z,13.60
2023-03-31T10:53:51.268Z,13.80
2023-03-31T10:56:47.182Z,13.80
2023-03-31T10:59:40.502Z,13.70
2023-03-31T11:02:37.438Z,13.70
2023-03-31T11:05:15.413Z,13.80
2023-03-31T11:07:55.361Z,13.50
2023-03-31T11:10:39.565Z,13.60
2023-03-31T11:13:16.133Z,13.60
2023-03-31T11:15:55.212Z,13.70
2023-03-31T11:18:51.535Z,13.80
2023-03-31T11:21:26.427Z,13.80
2023-03-31T11:24:06.542Z,13.60
2023-03-31T11:26:45.379Z,13.60
2023-03-31T11:29:26.889Z,13.70
2023-03-31T11:32:04.256Z,13.70
2023-03-31T11:34:58.677Z,13.90
2023-03-31T11:37:41.702Z,14.10
2023-03-31T11:40:32.575Z,14.00
2023-03-31T11:43:07.290Z,13.90
2023-03-31T11:45:39.609Z,14.10
2023-03-31T11:48:15.769Z,14.20
2023-03-31T11:50:48.083Z,14.30
2023-03-31T11:53:21.014Z,14.50
2023-03-31T11:55:52.333Z,14.30
2023-03-31T11:58:25.547Z,14.40
2023-03-31T12:01:03.262Z,14.80
2023-03-31T12:03:38.239Z,14.40
2023-03-31T12:06:17.283Z,14.80
2023-03-31T12:08:58.779Z,14.60
2023-03-31T12:11:33.023Z,14.60
2023-03-31T12:14:16.541Z,14.60
2023-03-31T12:16:47.536Z,14.80
2023-03-31T12:19:19.663Z,15.00
2023-03-31T12:21:52.652Z,15.00
2023-03-31T12:24:20.801Z,15.00
2023-03-31T12:27:00.886Z,15.10
2023-03-31T12:29:34.789Z,14.90
2023-03-31T12:32:07.009Z,15.00
2023-03-31T12:34:40.406Z,15.30
2023-03-31T12:37:38.032Z,14.70
2023-03-31T12:40:17.569Z,14.80
2023-03-31T12:43:10.629Z,15.00
2023-03-31T12:45:45.036Z,15.30
2023-03-31T12:48:40.204Z,15.30
2023-03-31T12:51:21.448Z,15.50
2023-03-31T12:54:05.093Z,15.20
2023-03-31T12:57:15.016Z,15.30
2023-03-31T12:59:44.922Z,15.50
2023-03-31T13:02:25.455Z,15.80
2023-03-31T13:04:53.726Z,15.40
2023-03-31T13:07:46.054Z,15.50
2023-03-31T13:10:29.145Z,15.40
2023-03-31T13:13:05.458Z,15.30
2023-03-31T13:15:34.269Z,15.80
2023-03-31T13:18:05.977Z,15.90
2023-03-31T13:20:38.354Z,15.60
2023-03-31T13:23:16.139Z,15.50
2023-03-31T13:25:50.065Z,15.50
2023-03-31T13:28:26.155Z,15.40
2023-03-31T13:30:57.479Z,15.10
2023-03-31T13:33:33.838Z,15.20
2023-03-31T13:36:41.208Z,15.10
2023-03-31T13:39:25.764Z,14.90
2023-03-31T13:42:03.765Z,14.80
2023-03-31T13:44:54.162Z,15.00
2023-03-31T13:47:54.104Z,14.90
2023-03-31T13:50:52.053Z,14.80
2023-03-31T13:53:43.869Z,14.70
2023-03-31T13:56:34.226Z,14.70
2023-03-31T13:59:41.913Z,14.70
2023-03-31T14:02:41.898Z,14.70
2023-03-31T14:05:30.234Z,14.80
2023-03-31T14:08:02.793Z,15.50
2023-03-31T14:10:33.624Z,15.70
2023-03-31T14:13:09.775Z,15.80
2023-03-31T14:15:39.677Z,16.00
2023-03-31T14:18:09.402Z,16.40
2023-03-31T14:20:46.276Z,16.90
2023-03-31T14:23:30.864Z,16.00
2023-03-31T14:26:06.913Z,15.40
2023-03-31T14:29:01.077Z,15.20
2023-03-31T14:31:35.347Z,15.10
2023-03-31T14:34:24.748Z,15.30
2023-03-31T14:37:00.327Z,15.20
2023-03-31T14:39:32.889Z,15.30
2023-03-31T14:42:03.966Z,15.50
2023-03-31T14:44:32.278Z,15.60
2023-03-31T14:47:01.787Z,15.40
2023-03-31T14:49:31.387Z,15.20
2023-03-31T14:52:03.383Z,15.40
2023-03-31T14:54:38.247Z,15.30
2023-03-31T14:57:07.335Z,15.70
2023-03-31T14:59:37.467Z,15.50
2023-03-31T15:02:06.739Z,15.40
2023-03-31T15:04:45.257Z,15.20
2023-03-31T15:07:14.277Z,15.40
2023-03-31T15:09:49.562Z,15.80
2023-03-31T15:12:20.329Z,16.80
2023-03-31T15:14:51.363Z,18.10
2023-03-31T15:17:25.624Z,17.00
2023-03-31T15:19:56.556Z,16.20
2023-03-31T15:22:27.673Z,16.60
2023-03-31T15:24:57.415Z,16.30
2023-03-31T15:27:37.956Z,16.00
2023-03-31T15:30:10.077Z,16.20
2023-03-31T15:32:40.918Z,15.80
2023-03-31T15:35:22.602Z,15.90
2023-03-31T15:37:53.287Z,15.70
2023-03-31T15:40:25.904Z,15.30
2023-03-31T15:43:06.468Z,15.40
2023-03-31T15:45:52.721Z,15.30
2023-03-31T15:48:24.634Z,15.20
2023-03-31T15:50:54.226Z,15.10
2023-03-31T15:53:30.642Z,15.10
2023-03-31T15:56:01.755Z,14.90
2023-03-31T15:58:55.853Z,14.90
2023-03-31T16:01:26.044Z,14.90
2023-03-31T16:03:55.990Z,14.60
2023-03-31T16:06:40.195Z,14.20
2023-03-31T16:09:10.938Z,13.90
2023-03-31T16:11:44.852Z,13.70
2023-03-31T16:14:17.560Z,13.60
2023-03-31T16:16:49.965Z,13.50
2023-03-31T16:19:20.109Z,13.50
2023-03-31T16:21:52.826Z,13.40
2023-03-31T16:24:22.508Z,13.20
2023-03-31T16:26:52.082Z,13.20
2023-03-31T16:29:23.670Z,13.10
2023-03-31T16:32:07.544Z,13.00
2023-03-31T16:34:35.798Z,13.00
2023-03-31T16:37:09.769Z,12.90
2023-03-31T16:39:37.995Z,12.80
2023-03-31T16:42:07.624Z,12.80
2023-03-31T16:44:35.791Z,12.70
2023-03-31T16:47:04.038Z,12.70
2023-03-31T16:49:32.259Z,12.70
2023-03-31T16:52:00.528Z,12.60
2023-03-31T16:54:28.830Z,12.50
2023-03-31T16:56:57.405Z,12.50
2023-03-31T16:59:27.375Z,12.40
2023-03-31T17:01:55.586Z,12.40
2023-03-31T17:04:24.026Z,12.40
2023-03-31T17:06:52.501Z,12.30
2023-03-31T17:09:20.746Z,12.20
2023-03-31T17:11:49.902Z,12.20
2023-03-31T17:14:18.134Z,12.10
2023-03-31T17:16:48.718Z,12.10
2023-03-31T17:19:18.084Z,12.10
2023-03-31T17:21:46.738Z,11.90
2023-03-31T17:24:14.978Z,11.90
2023-03-31T17:26:43.134Z,11.50
2023-03-31T17:29:12.068Z,11.40
2023-03-31T17:31:41.624Z,11.30
2023-03-31T17:34:11.393Z,11.20
2023-03-31T17:36:41.905Z,11.00
2023-03-31T17:39:10.307Z,10.90
2023-03-31T17:41:38.660Z,10.80
2023-03-31T17:44:07.996Z,10.70
2023-03-31T17:46:36.550Z,10.60
2023-03-31T17:49:04.913Z,10.50
2023-03-31T17:51:36.347Z,10.40
2023-03-31T17:54:04.789Z,10.30
2023-03-31T17:56:33.018Z,10.30
2023-03-31T17:59:01.687Z,10.20
2023-03-31T18:01:29.903Z,10.30
2023-03-31T18:03:59.455Z,10.30
2023-03-31T18:06:27.813Z,10.30
2023-03-31T18:08:57.865Z,10.30
2023-03-31T18:11:26.781Z,10.40
2023-03-31T18:13:55.521Z,10.20
2023-03-31T18:16:23.787Z,10.20
2023-03-31T18:18:52.097Z,10.20
2023-03-31T18:21:20.406Z,10.20
2023-03-31T18:23:52.590Z,10.20
2023-03-31T18:26:23.849Z,10.10
2023-03-31T18:28:54.068Z,10.20
2023-03-31T18:31:22.567Z,10.20
2023-03-31T18:33:52.323Z,10.10
2023-03-31T18:36:22.204Z,10.10
2023-03-31T18:38:51.515Z,10.10
2023-03-31T18:41:21.158Z,10.20
2023-03-31T18:43:50.789Z,10.10
2023-03-31T18:46:19.135Z,10.00
2023-03-31T18:48:47.661Z,10.10
2023-03-31T18:51:15.829Z,10.10
2023-03-31T18:53:44.066Z,10.10
2023-03-31T18:56:12.330Z,10.00
2023-03-31T18:58:41.927Z,9.90
2023-03-31T19:01:10.589Z,10.00
2023-03-31T19:03:39.118Z,10.10
2023-03-31T19:06:11.013Z,10.00
2023-03-31T19:08:39.949Z,10.10
2023-03-31T19:11:09.808Z,10.10
2023-03-31T19:13:38.948Z,10.10
2023-03-31T19:16:08.685Z,10.00
2023-03-31T19:18:37.524Z,10.10
2023-03-31T19:21:06.301Z,10.10
2023-03-31T19:23:35.047Z,10.10
2023-03-31T19:26:03.942Z,10.10
2023-03-31T19:28:32.677Z,10.20
2023-03-31T19:31:03.598Z,10.20
2023-03-31T19:33:33.167Z,10.20
2023-03-31T19:36:02.109Z,10.20
2023-03-31T19:38:32.322Z,10.20
2023-03-31T19:41:01.196Z,10.20
2023-03-31T19:43:30.723Z,10.20
2023-03-31T19:45:59.740Z,10.10
2023-03-31T19:48:31.297Z,10.10
2023-03-31T19:51:05.906Z,10.00
2023-03-31T19:53:34.896Z,9.90
2023-03-31T19:56:05.289Z,9.90
2023-03-31T19:58:35.858Z,9.80
2023-03-31T20:01:08.316Z,9.80
2023-03-31T20:03:36.782Z,9.80
2023-03-31T20:06:09.242Z,9.90
2023-03-31T20:08:38.241Z,9.90
2023-03-31T20:11:09.818Z,9.90
2023-03-31T20:13:39.136Z,9.90
2023-03-31T20:16:09.654Z,10.00
2023-03-31T20:18:39.132Z,10.00
2023-03-31T20:21:11.316Z,10.10
2023-03-31T20:23:41.114Z,10.10
2023-03-31T20:26:11.129Z,10.10
2023-03-31T20:28:40.171Z,10.00
2023-03-31T20:31:08.949Z,10.00
2023-03-31T20:33:37.605Z,9.90
2023-03-31T20:36:09.721Z,10.00
2023-03-31T20:38:38.799Z,10.00
2023-03-31T20:41:07.340Z,9.90
2023-03-31T20:43:36.719Z,9.90
2023-03-31T20:46:06.442Z,9.90
2023-03-31T20:48:37.713Z,9.90
2023-03-31T20:51:07.607Z,9.90
2023-03-31T20:53:41.985Z,9.90
2023-03-31T20:56:10.762Z,9.90
2023-03-31T20:58:39.672Z,9.90
2023-03-31T21:01:09.775Z,9.90
2023-03-31T21:03:38.516Z,10.00
2023-03-31T21:06:11.338Z,10.00
2023-03-31T21:08:42.721Z,10.00
2023-03-31T21:11:11.250Z,10.00
2023-03-31T21:13:39.584Z,10.00
2023-03-31T21:16:08.011Z,10.00
2023-03-31T21:18:37.731Z,10.00
2023-03-31T21:21:07.706Z,10.00
2023-03-31T21:23:36.602Z,10.00
2023-03-31T21:26:07.713Z,10.00
2023-03-31T21:28:38.065Z,10.00
2023-03-31T21:31:07.957Z,10.00
2023-03-31T21:33:43.446Z,10.10
2023-03-31T21:36:13.966Z,10.00
2023-03-31T21:38:42.225Z,10.00
2023-03-31T21:41:13.372Z,10.00
2023-03-31T21:43:41.875Z,10.00
2023-03-31T21:46:10.162Z,10.00
2023-03-31T21:48:38.454Z,10.00
2023-03-31T21:51:06.713Z,10.00
2023-03-31T21:53:34.921Z,10.00
2023-03-31T21:56:03.145Z,9.90
2023-03-31T21:58:32.929Z,10.00
2023-03-31T22:01:03.916Z,9.90
2023-03-31T22:03:34.388Z,9.90
2023-03-31T22:06:04.500Z,9.90
2023-03-31T22:08:33.017Z,9.90
2023-03-31T22:11:01.987Z,9.90
2023-03-31T22:13:32.008Z,9.90
2023-03-31T22:16:01.873Z,9.90
2023-03-31T22:18:30.467Z,9.80
2023-03-31T22:20:59.230Z,9.80
2023-03-31T22:23:27.770Z,9.80
2023-03-31T22:25:56.263Z,9.80
2023-03-31T22:28:24.447Z,9.80
2023-03-31T22:30:53.993Z,9.80
2023-03-31T22:33:22.174Z,9.80
2023-03-31T22:35:50.572Z,9.80
2023-03-31T22:38:18.837Z,9.80
2023-03-31T22:40:47.011Z,9.80
2023-03-31T22:43:15.293Z,9.70
2023-03-31T22:45:43.504Z,9.70
2023-03-31T22:48:13.949Z,9.70
2023-03-31T22:50:43.361Z,9.70
2023-03-31T22:53:11.868Z,9.60
2023-03-31T22:55:44.083Z,9.60
2023-03-31T22:58:23.304Z,9.60
2023-03-31T23:00:57.475Z,9.50
2023-03-31T23:03:27.579Z,9.50
2023-03-31T23:05:55.901Z,9.50
2023-03-31T23:08:24.319Z,9.50
2023-03-31T23:10:57.611Z,9.50
2023-03-31T23:13:26.067Z,9.50
2023-03-31T23:15:54.369Z,9.50
2023-03-31T23:18:23.047Z,9.50
2023-03-31T23:20:52.593Z,9.50
2023-03-31T23:23:20.821Z,9.50
2023-03-31T23:25:48.986Z,9.60
2023-03-31T23:28:17.627Z,9.60
2023-03-31T23:30:56.518Z,9.60
2023-03-31T23:33:25.538Z,9.50
2023-03-31T23:36:00.522Z,9.50
2023-03-31T23:38:28.735Z,9.50
2023-03-31T23:40:57.081Z,9.50
2023-03-31T23:43:26.676Z,9.50
2023-03-31T23:45:56.433Z,9.40
2023-03-31T23:48:24.829Z,9.50
2023-03-31T23:50:54.388Z,9.50
2023-03-31T23:53:22.587Z,9.50
2023-03-31T23:55:55.532Z,9.50
2023-03-31T23:58:23.849Z,9.40
